createdAt,value
2018-01-30T00:00:29.186Z,80.10
2018-01-30T00:02:56.651Z,80.70
2018-01-30T00:05:24.086Z,81.00
2018-01-30T00:07:51.607Z,80.70
2018-01-30T00:10:19.056Z,80.60
2018-01-30T00:12:46.690Z,80.60
2018-01-30T00:15:14.134Z,80.60
2018-01-30T00:17:41.591Z,80.60
2018-01-30T00:20:09.271Z,80.30
2018-01-30T00:22:37.496Z,80.90
2018-01-30T00:25:04.955Z,80.50
2018-01-30T00:27:32.404Z,80.70
2018-01-30T00:29:59.848Z,80.60
2018-01-30T00:32:27.362Z,80.60
2018-01-30T00:34:54.859Z,80.60
2018-01-30T00:37:22.293Z,80.60
2018-01-30T00:39:50.505Z,80.50
2018-01-30T00:42:17.935Z,80.50
2018-01-30T00:44:46.147Z,80.50
2018-01-30T00:47:13.577Z,80.40
2018-01-30T00:49:41.013Z,80.40
2018-01-30T00:52:09.214Z,80.40
2018-01-30T00:54:36.661Z,80.40
2018-01-30T00:57:04.920Z,80.40
2018-01-30T00:59:32.314Z,80.40
2018-01-30T01:01:59.742Z,80.60
2018-01-30T01:04:27.964Z,80.50
2018-01-30T01:06:55.397Z,80.50
2018-01-30T01:09:22.849Z,80.50
2018-01-30T01:11:50.274Z,80.50
2018-01-30T01:14:17.714Z,80.40
2018-01-30T01:16:45.147Z,80.40
2018-01-30T01:19:12.581Z,80.40
2018-01-30T01:21:40.016Z,80.40
2018-01-30T01:24:08.224Z,80.50
2018-01-30T01:26:35.651Z,80.50
2018-01-30T01:29:03.860Z,80.40
2018-01-30T01:31:31.305Z,80.40
2018-01-30T01:33:58.742Z,80.30
2018-01-30T01:36:26.182Z,80.20
2018-01-30T01:38:54.389Z,80.30
2018-01-30T01:41:21.830Z,80.20
2018-01-30T01:43:50.038Z,80.20
2018-01-30T01:46:17.474Z,80.20
2018-01-30T01:48:44.909Z,80.20
2018-01-30T01:51:13.122Z,80.00
2018-01-30T01:53:40.570Z,80.00
2018-01-30T01:56:08.003Z,80.20
2018-01-30T01:58:36.227Z,80.20
2018-01-30T02:01:03.657Z,80.10
2018-01-30T02:03:31.086Z,80.20
2018-01-30T02:05:59.307Z,80.20
2018-01-30T02:08:26.742Z,80.20
2018-01-30T02:10:54.190Z,80.40
2018-01-30T02:13:21.624Z,80.20
2018-01-30T02:15:49.061Z,80.10
2018-01-30T02:18:16.639Z,80.10
2018-01-30T02:20:44.078Z,80.00
2018-01-30T02:23:11.514Z,80.00
2018-01-30T02:25:38.960Z,80.00
2018-01-30T02:28:06.400Z,80.90
2018-01-30T02:30:33.843Z,80.20
2018-01-30T02:33:02.058Z,80.40
2018-01-30T02:35:29.515Z,80.40
2018-01-30T02:37:56.950Z,80.50
2018-01-30T02:40:24.402Z,80.50
2018-01-30T02:42:51.830Z,80.50
2018-01-30T02:45:20.057Z,80.40
2018-01-30T02:47:47.489Z,80.20
2018-01-30T02:50:14.922Z,81.10
2018-01-30T02:52:43.118Z,80.30
2018-01-30T02:55:10.566Z,80.30
2018-01-30T02:57:38.761Z,80.40
2018-01-30T03:00:06.201Z,80.30
2018-01-30T03:02:34.401Z,80.50
2018-01-30T03:05:01.837Z,80.50
2018-01-30T03:07:29.412Z,80.60
2018-01-30T03:09:56.862Z,80.50
2018-01-30T03:12:24.289Z,80.50
2018-01-30T03:14:52.510Z,80.50
2018-01-30T03:17:19.940Z,80.50
2018-01-30T03:19:47.446Z,80.40
2018-01-30T03:22:15.590Z,80.50
2018-01-30T03:24:43.033Z,80.50
2018-01-30T03:27:10.470Z,80.50
2018-01-30T03:29:38.680Z,80.50
2018-01-30T03:32:06.133Z,80.50
2018-01-30T03:34:33.561Z,80.60
2018-01-30T03:37:01.774Z,80.80
2018-01-30T03:39:29.212Z,80.60
2018-01-30T03:41:56.646Z,80.70
2018-01-30T03:44:24.854Z,80.60
2018-01-30T03:46:52.307Z,80.60
2018-01-30T03:49:19.738Z,80.60
2018-01-30T03:51:47.945Z,80.60
2018-01-30T03:54:15.374Z,80.60
2018-01-30T03:56:43.594Z,80.80
2018-01-30T03:59:11.022Z,80.80
2018-01-30T04:01:38.457Z,80.80
2018-01-30T04:04:06.654Z,80.80
2018-01-30T04:06:34.102Z,80.80
2018-01-30T04:09:02.313Z,80.90
2018-01-30T04:11:29.770Z,80.80
2018-01-30T04:13:57.215Z,80.80
2018-01-30T04:16:24.647Z,80.90
2018-01-30T04:18:52.858Z,80.90
2018-01-30T04:21:20.301Z,80.90
2018-01-30T04:23:47.739Z,80.80
2018-01-30T04:26:15.953Z,81.40
2018-01-30T04:28:43.389Z,80.60
2018-01-30T04:31:10.860Z,80.60
2018-01-30T04:33:38.279Z,80.80
2018-01-30T04:36:06.502Z,80.70
2018-01-30T04:38:33.949Z,80.70
2018-01-30T04:41:01.406Z,80.70
2018-01-30T04:43:28.865Z,80.70
2018-01-30T04:45:56.321Z,80.70
2018-01-30T04:48:23.753Z,80.70
2018-01-30T04:50:51.223Z,80.70
2018-01-30T04:53:18.653Z,80.70
2018-01-30T04:55:46.872Z,80.80
2018-01-30T04:58:14.288Z,80.70
2018-01-30T05:00:42.498Z,80.50
2018-01-30T05:03:09.950Z,80.60
2018-01-30T05:05:37.368Z,80.80
2018-01-30T05:08:05.590Z,80.80
2018-01-30T05:10:33.044Z,80.90
2018-01-30T05:13:00.497Z,81.00
2018-01-30T05:15:27.921Z,80.90
2018-01-30T05:17:56.145Z,80.90
2018-01-30T05:20:23.604Z,81.60
2018-01-30T05:22:51.046Z,80.90
2018-01-30T05:25:18.490Z,80.80
2018-01-30T05:27:45.930Z,80.80
2018-01-30T05:30:14.116Z,80.90
2018-01-30T05:32:41.557Z,80.90
2018-01-30T05:35:09.770Z,81.20
2018-01-30T05:37:37.225Z,81.00
2018-01-30T05:40:04.635Z,81.20
2018-01-30T05:42:32.830Z,80.70
2018-01-30T05:45:00.273Z,80.70
2018-01-30T05:47:28.478Z,80.60
2018-01-30T05:49:55.906Z,80.60
2018-01-30T05:52:24.122Z,80.70
2018-01-30T05:54:51.583Z,80.70
2018-01-30T05:57:19.022Z,80.80
2018-01-30T05:59:46.470Z,80.90
2018-01-30T06:02:13.918Z,80.80
2018-01-30T06:04:42.127Z,80.80
2018-01-30T06:07:09.570Z,80.80
2018-01-30T06:09:36.997Z,80.80
2018-01-30T06:12:05.200Z,80.90
2018-01-30T06:14:32.649Z,80.90
2018-01-30T06:17:00.105Z,80.80
2018-01-30T06:19:27.533Z,80.80
2018-01-30T06:21:55.752Z,80.80
2018-01-30T06:24:23.194Z,80.80
2018-01-30T06:26:50.638Z,80.80
2018-01-30T06:29:18.854Z,80.90
2018-01-30T06:31:46.292Z,80.80
2018-01-30T06:34:13.734Z,80.90
2018-01-30T06:36:41.935Z,80.80
2018-01-30T06:39:09.436Z,80.80
2018-01-30T06:41:36.879Z,81.00
2018-01-30T06:44:04.325Z,81.10
2018-01-30T06:46:31.774Z,80.80
2018-01-30T06:48:59.238Z,80.80
2018-01-30T06:51:26.700Z,80.90
2018-01-30T06:53:54.137Z,81.00
2018-01-30T06:56:21.700Z,81.00
2018-01-30T06:58:49.135Z,81.00
2018-01-30T07:01:16.557Z,81.30
2018-01-30T07:03:44.010Z,81.30
2018-01-30T07:06:11.442Z,81.40
2018-01-30T07:08:38.881Z,81.40
2018-01-30T07:11:06.325Z,81.40
2018-01-30T07:13:33.769Z,81.40
2018-01-30T07:16:01.210Z,81.50
2018-01-30T07:18:29.413Z,81.50
2018-01-30T07:20:56.852Z,81.50
2018-01-30T07:23:25.064Z,81.30
2018-01-30T07:25:52.502Z,81.30
2018-01-30T07:28:19.941Z,81.50
2018-01-30T07:30:48.148Z,81.40
2018-01-30T07:33:15.600Z,81.40
2018-01-30T07:35:43.038Z,81.10
2018-01-30T07:38:10.506Z,81.00
2018-01-30T07:40:37.942Z,81.20
2018-01-30T07:43:06.167Z,81.80
2018-01-30T07:45:33.593Z,81.10
2018-01-30T07:48:01.031Z,81.10
2018-01-30T07:50:29.247Z,81.20
2018-01-30T07:52:56.681Z,81.10
2018-01-30T07:55:24.142Z,81.10
2018-01-30T07:57:51.578Z,81.20
2018-01-30T08:00:19.789Z,81.20
2018-01-30T08:02:47.240Z,81.20
2018-01-30T08:05:14.679Z,81.20
2018-01-30T08:07:42.113Z,81.30
2018-01-30T08:10:10.334Z,81.40
2018-01-30T08:12:37.770Z,81.30
2018-01-30T08:15:05.210Z,81.20
2018-01-30T08:17:33.417Z,81.60
2018-01-30T08:20:00.863Z,81.50
2018-01-30T08:22:28.300Z,81.50
2018-01-30T08:24:56.507Z,81.90
2018-01-30T08:27:23.938Z,81.90
2018-01-30T08:29:52.146Z,82.20
2018-01-30T08:32:19.577Z,82.10
2018-01-30T08:34:47.017Z,82.10
2018-01-30T08:37:15.236Z,81.90
2018-01-30T08:39:42.678Z,81.90
2018-01-30T08:42:10.118Z,81.90
2018-01-30T08:44:37.555Z,82.00
2018-01-30T08:47:05.754Z,82.20
2018-01-30T08:49:33.210Z,82.20
2018-01-30T08:52:00.650Z,83.00
2018-01-30T08:54:28.864Z,82.10
2018-01-30T08:56:56.293Z,82.10
2018-01-30T08:59:24.504Z,82.00
2018-01-30T09:01:51.947Z,82.00
2018-01-30T09:04:19.390Z,81.90
2018-01-30T09:06:46.834Z,82.00
2018-01-30T09:09:15.067Z,82.00
2018-01-30T09:11:42.474Z,82.00
2018-01-30T09:14:09.923Z,82.10
2018-01-30T09:16:38.123Z,82.20
2018-01-30T09:19:05.560Z,82.10
2018-01-30T09:21:33.778Z,82.40
2018-01-30T09:24:01.213Z,82.30
2018-01-30T09:26:28.650Z,82.50
2018-01-30T09:28:56.842Z,82.70
2018-01-30T09:31:24.290Z,82.70
2018-01-30T09:33:51.718Z,82.70
2018-01-30T09:36:19.162Z,82.70
2018-01-30T09:38:46.614Z,82.70
2018-01-30T09:41:14.054Z,82.60
2018-01-30T09:43:41.495Z,82.50
2018-01-30T09:46:08.942Z,82.40
2018-01-30T09:48:36.370Z,81.90
2018-01-30T09:51:04.584Z,81.80
2018-01-30T09:53:32.019Z,81.70
2018-01-30T09:56:00.217Z,81.40
2018-01-30T09:58:27.651Z,81.40
2018-01-30T10:00:55.098Z,81.40
2018-01-30T10:03:23.299Z,81.30
2018-01-30T10:05:50.741Z,81.30
2018-01-30T10:08:18.178Z,81.20
2018-01-30T10:10:46.382Z,81.20
2018-01-30T10:13:13.827Z,81.10
2018-01-30T10:15:41.272Z,81.00
2018-01-30T10:18:09.478Z,80.90
2018-01-30T10:20:36.921Z,80.90
2018-01-30T10:23:04.358Z,80.50
2018-01-30T10:25:33.391Z,80.60
2018-01-30T10:28:00.829Z,80.60
2018-01-30T10:30:28.269Z,80.00
2018-01-30T10:32:56.476Z,80.40
2018-01-30T10:35:23.922Z,80.40
2018-01-30T10:37:51.349Z,80.40
2018-01-30T10:40:19.570Z,80.60
2018-01-30T10:42:47.002Z,80.40
2018-01-30T10:45:14.454Z,80.60
2018-01-30T10:47:42.657Z,80.40
2018-01-30T10:50:10.123Z,80.30
2018-01-30T10:52:37.572Z,80.30
2018-01-30T10:55:05.005Z,80.40
2018-01-30T10:57:32.454Z,80.40
2018-01-30T11:00:00.660Z,81.20
2018-01-30T11:02:28.115Z,80.50
2018-01-30T11:04:55.531Z,80.50
2018-01-30T11:07:23.749Z,79.90
2018-01-30T11:09:51.186Z,79.90
2018-01-30T11:12:18.625Z,80.40
2018-01-30T11:14:46.825Z,79.90
2018-01-30T11:17:14.273Z,79.80
2018-01-30T11:19:41.687Z,80.00
2018-01-30T11:22:09.139Z,79.70
2018-01-30T11:24:36.578Z,79.70
2018-01-30T11:27:04.009Z,79.50
2018-01-30T11:29:31.451Z,79.50
2018-01-30T11:31:59.661Z,79.20
2018-01-30T11:34:27.193Z,79.20
2018-01-30T11:36:54.639Z,79.10
2018-01-30T11:39:22.847Z,78.30
2018-01-30T11:41:50.294Z,78.30
2018-01-30T11:44:17.721Z,78.30
2018-01-30T11:46:45.939Z,78.50
2018-01-30T11:49:13.368Z,78.50
2018-01-30T11:51:40.814Z,78.50
2018-01-30T11:54:09.025Z,78.30
2018-01-30T11:56:36.496Z,78.30
2018-01-30T11:59:03.941Z,78.20
2018-01-30T12:01:31.388Z,78.30
2018-01-30T12:03:58.812Z,78.30
2018-01-30T12:06:27.092Z,78.20
2018-01-30T12:08:54.558Z,78.20
2018-01-30T12:11:21.994Z,78.10
2018-01-30T12:13:49.435Z,78.10
2018-01-30T12:16:16.877Z,78.00
2018-01-30T12:18:44.314Z,77.90
2018-01-30T12:21:11.753Z,77.80
2018-01-30T12:23:39.193Z,77.70
2018-01-30T12:26:07.404Z,77.30
2018-01-30T12:28:34.836Z,77.30
2018-01-30T12:31:02.277Z,77.30
2018-01-30T12:33:30.493Z,77.30
2018-01-30T12:35:57.945Z,77.30
2018-01-30T12:38:25.382Z,77.00
2018-01-30T12:40:52.812Z,76.90
2018-01-30T12:43:20.262Z,77.80
2018-01-30T12:45:47.694Z,77.00
2018-01-30T12:48:15.133Z,77.00
2018-01-30T12:50:42.573Z,77.00
2018-01-30T12:53:10.013Z,76.60
2018-01-30T12:55:38.213Z,76.80
2018-01-30T12:58:05.665Z,76.80
2018-01-30T13:00:33.091Z,76.70
2018-01-30T13:03:00.526Z,76.40
2018-01-30T13:05:27.973Z,76.80
2018-01-30T13:07:55.414Z,75.90
2018-01-30T13:10:22.854Z,75.70
2018-01-30T13:12:50.298Z,75.70
2018-01-30T13:15:17.738Z,75.40
2018-01-30T13:17:45.953Z,75.30
2018-01-30T13:20:13.390Z,75.30
2018-01-30T13:22:40.834Z,75.10
2018-01-30T13:25:09.041Z,74.90
2018-01-30T13:27:36.485Z,74.90
2018-01-30T13:30:03.919Z,75.00
2018-01-30T13:32:32.121Z,74.70
2018-01-30T13:34:59.566Z,74.50
2018-01-30T13:37:27.011Z,74.50
2018-01-30T13:39:55.219Z,74.40
2018-01-30T13:42:22.660Z,74.40
2018-01-30T13:44:50.110Z,74.10
2018-01-30T13:47:17.546Z,73.90
2018-01-30T13:49:45.762Z,74.40
2018-01-30T13:52:13.193Z,73.80
2018-01-30T13:54:41.407Z,73.60
2018-01-30T13:57:08.845Z,73.70
2018-01-30T13:59:36.294Z,73.90
2018-01-30T14:02:03.728Z,73.70
2018-01-30T14:04:31.936Z,73.50
2018-01-30T14:06:59.377Z,73.50
2018-01-30T14:09:26.822Z,73.00
2018-01-30T14:11:55.029Z,72.50
2018-01-30T14:14:22.470Z,72.50
2018-01-30T14:16:49.908Z,72.50
2018-01-30T14:19:18.122Z,72.50
2018-01-30T14:21:45.549Z,72.40
2018-01-30T14:24:12.995Z,72.70
2018-01-30T14:26:41.202Z,72.00
2018-01-30T14:29:08.646Z,72.00
2018-01-30T14:31:36.083Z,72.00
2018-01-30T14:34:04.286Z,71.80
2018-01-30T14:36:31.857Z,72.30
2018-01-30T14:38:59.294Z,71.60
2018-01-30T14:41:26.721Z,70.80
2018-01-30T14:43:54.173Z,71.40
2018-01-30T14:46:21.607Z,68.40
2018-01-30T14:48:49.050Z,70.50
2018-01-30T14:51:16.488Z,71.20
2018-01-30T14:53:43.938Z,70.90
2018-01-30T14:56:11.365Z,71.00
2018-01-30T14:58:38.847Z,70.90
2018-01-30T15:01:06.286Z,69.10
2018-01-30T15:03:34.486Z,70.30
2018-01-30T15:06:01.916Z,70.30
2018-01-30T15:08:30.118Z,70.20
2018-01-30T15:10:57.562Z,70.20
2018-01-30T15:13:25.758Z,69.90
2018-01-30T15:15:53.184Z,69.80
2018-01-30T15:18:21.389Z,70.10
2018-01-30T15:20:48.826Z,70.10
2018-01-30T15:23:17.032Z,69.90
2018-01-30T15:25:44.474Z,69.90
2018-01-30T15:28:11.914Z,69.60
2018-01-30T15:30:40.130Z,69.50
2018-01-30T15:33:07.562Z,69.50
2018-01-30T15:35:35.001Z,69.30
2018-01-30T15:38:03.198Z,69.50
2018-01-30T15:40:30.637Z,69.50
2018-01-30T15:42:58.829Z,69.70
2018-01-30T15:45:26.277Z,69.50
2018-01-30T15:47:53.706Z,69.40
2018-01-30T15:50:21.150Z,69.60
2018-01-30T15:52:48.590Z,69.70
2018-01-30T15:55:16.046Z,69.50
2018-01-30T15:57:43.480Z,69.60
2018-01-30T16:00:10.921Z,69.70
2018-01-30T16:02:38.364Z,69.70
2018-01-30T16:05:06.589Z,69.50
2018-01-30T16:07:34.017Z,69.50
2018-01-30T16:10:01.464Z,69.60
2018-01-30T16:12:28.917Z,69.30
2018-01-30T16:14:57.123Z,69.90
2018-01-30T16:17:24.567Z,69.90
2018-01-30T16:19:52.006Z,69.90
2018-01-30T16:22:20.272Z,70.10
2018-01-30T16:24:47.659Z,70.10
2018-01-30T16:27:15.109Z,70.00
2018-01-30T16:29:42.542Z,70.20
2018-01-30T16:32:10.765Z,70.30
2018-01-30T16:34:38.201Z,70.30
2018-01-30T16:37:05.649Z,70.40
2018-01-30T16:39:33.086Z,70.40
2018-01-30T16:42:01.308Z,70.40
2018-01-30T16:44:28.729Z,70.40
2018-01-30T16:46:56.947Z,70.40
2018-01-30T16:49:24.386Z,70.40
2018-01-30T16:51:51.827Z,70.50
2018-01-30T16:54:19.267Z,70.60
2018-01-30T16:56:47.479Z,70.60
2018-01-30T16:59:14.914Z,70.60
2018-01-30T17:01:42.349Z,70.70
2018-01-30T17:04:10.546Z,71.10
2018-01-30T17:06:37.994Z,71.00
2018-01-30T17:09:06.200Z,71.20
2018-01-30T17:11:33.646Z,71.10
2018-01-30T17:14:01.078Z,71.20
2018-01-30T17:16:29.290Z,71.60
2018-01-30T17:18:56.708Z,71.60
2018-01-30T17:21:24.931Z,71.70
2018-01-30T17:23:52.385Z,71.70
2018-01-30T17:26:19.843Z,71.60
2018-01-30T17:28:47.281Z,72.40
2018-01-30T17:31:14.733Z,71.60
2018-01-30T17:33:42.166Z,71.60
2018-01-30T17:36:10.386Z,72.30
2018-01-30T17:38:37.821Z,71.50
2018-01-30T17:41:05.262Z,71.60
2018-01-30T17:43:33.466Z,71.60
2018-01-30T17:46:00.911Z,71.50
2018-01-30T17:48:28.368Z,71.50
2018-01-30T17:50:55.797Z,71.60
2018-01-30T17:53:24.022Z,71.80
2018-01-30T17:55:51.475Z,72.50
2018-01-30T17:58:18.922Z,71.70
2018-01-30T18:00:46.362Z,71.60
2018-01-30T18:03:13.791Z,71.70
2018-01-30T18:05:41.245Z,71.80
2018-01-30T18:08:08.674Z,71.80
2018-01-30T18:10:36.119Z,72.00
2018-01-30T18:13:03.571Z,72.00
2018-01-30T18:15:31.002Z,72.20
2018-01-30T18:17:59.211Z,72.00
2018-01-30T18:20:26.654Z,72.00
2018-01-30T18:22:54.103Z,72.00
2018-01-30T18:25:21.542Z,72.00
2018-01-30T18:27:49.754Z,72.00
2018-01-30T18:30:17.211Z,72.00
2018-01-30T18:32:44.635Z,71.80
2018-01-30T18:35:12.843Z,72.20
2018-01-30T18:37:40.289Z,72.20
2018-01-30T18:40:07.725Z,72.40
2018-01-30T18:42:35.935Z,72.80
2018-01-30T18:45:03.387Z,72.70
2018-01-30T18:47:30.839Z,72.70
2018-01-30T18:49:58.265Z,72.60
2018-01-30T18:52:26.477Z,72.40
2018-01-30T18:54:53.944Z,72.40
2018-01-30T18:57:21.366Z,72.50
2018-01-30T18:59:48.802Z,72.40
2018-01-30T19:02:17.022Z,72.50
2018-01-30T19:04:44.462Z,72.40
2018-01-30T19:07:11.897Z,72.50
2018-01-30T19:09:40.100Z,72.80
2018-01-30T19:12:07.555Z,72.80
2018-01-30T19:14:34.985Z,72.80
2018-01-30T19:17:03.190Z,72.90
2018-01-30T19:19:30.627Z,72.80
2018-01-30T19:21:58.832Z,72.90
2018-01-30T19:24:26.271Z,72.90
2018-01-30T19:26:53.707Z,72.90
2018-01-30T19:29:21.921Z,72.80
2018-01-30T19:31:49.350Z,72.70
2018-01-30T19:34:17.562Z,72.80
2018-01-30T19:36:44.986Z,72.80
2018-01-30T19:39:12.437Z,72.90
2018-01-30T19:41:40.638Z,73.00
2018-01-30T19:44:08.081Z,73.00
2018-01-30T19:46:35.513Z,73.10
2018-01-30T19:49:03.726Z,73.30
2018-01-30T19:51:31.154Z,73.20
2018-01-30T19:53:59.365Z,73.50
2018-01-30T19:56:26.807Z,73.40
2018-01-30T19:58:54.249Z,73.50
2018-01-30T20:01:21.687Z,73.50
2018-01-30T20:03:49.130Z,73.40
2018-01-30T20:06:16.570Z,73.50
2018-01-30T20:08:44.014Z,73.60
2018-01-30T20:11:11.455Z,73.60
2018-01-30T20:13:38.910Z,73.60
2018-01-30T20:16:06.386Z,73.50
2018-01-30T20:18:33.842Z,73.50
2018-01-30T20:21:01.278Z,73.50
2018-01-30T20:23:28.717Z,73.50
2018-01-30T20:25:56.942Z,73.60
2018-01-30T20:28:24.362Z,73.60
2018-01-30T20:30:51.794Z,73.60
2018-01-30T20:33:20.004Z,73.70
2018-01-30T20:35:47.454Z,73.70
2018-01-30T20:38:14.885Z,73.60
2018-01-30T20:40:43.105Z,73.70
2018-01-30T20:43:10.541Z,73.60
2018-01-30T20:45:38.015Z,73.80
2018-01-30T20:48:05.441Z,73.80
2018-01-30T20:50:33.650Z,73.90
2018-01-30T20:53:01.090Z,73.80
2018-01-30T20:55:28.540Z,73.80
2018-01-30T20:57:55.972Z,73.90
2018-01-30T21:00:24.195Z,73.70
2018-01-30T21:02:51.621Z,73.80
2018-01-30T21:05:19.826Z,73.70
2018-01-30T21:07:47.263Z,73.70
2018-01-30T21:10:14.707Z,73.80
2018-01-30T21:12:42.914Z,73.70
2018-01-30T21:15:10.357Z,73.70
2018-01-30T21:17:37.797Z,73.70
2018-01-30T21:20:06.004Z,73.80
2018-01-30T21:22:33.431Z,73.80
2018-01-30T21:25:01.638Z,73.80
2018-01-30T21:27:29.078Z,73.80
2018-01-30T21:29:56.525Z,73.80
2018-01-30T21:32:24.727Z,73.80
2018-01-30T21:34:52.180Z,73.60
2018-01-30T21:37:19.618Z,73.60
2018-01-30T21:39:47.058Z,73.90
2018-01-30T21:42:15.269Z,73.80
2018-01-30T21:44:42.714Z,73.70
2018-01-30T21:47:10.147Z,73.80
2018-01-30T21:49:38.349Z,73.70
2018-01-30T21:52:05.782Z,73.70
2018-01-30T21:54:34.003Z,73.80
2018-01-30T21:57:01.424Z,73.80
2018-01-30T21:59:28.865Z,73.80
2018-01-30T22:01:57.081Z,73.80
2018-01-30T22:04:24.533Z,73.70
2018-01-30T22:06:51.968Z,73.80
2018-01-30T22:09:19.412Z,73.90
2018-01-30T22:11:47.629Z,73.90
2018-01-30T22:14:15.062Z,73.80
2018-01-30T22:16:42.501Z,73.90
2018-01-30T22:19:10.710Z,73.90
2018-01-30T22:21:38.156Z,73.90
2018-01-30T22:24:05.589Z,73.90
2018-01-30T22:26:33.815Z,74.00
2018-01-30T22:29:01.249Z,74.00
2018-01-30T22:31:28.725Z,74.00
2018-01-30T22:33:56.152Z,74.10
2018-01-30T22:36:23.598Z,74.10
2018-01-30T22:38:51.804Z,74.10
2018-01-30T22:41:19.245Z,74.10
2018-01-30T22:43:46.674Z,74.10
2018-01-30T22:46:14.881Z,74.40
